createdAt,value
2018-04-04T00:00:11.250Z,1.53
2018-04-04T00:02:38.731Z,1.40
2018-04-04T00:05:06.964Z,1.30
2018-04-04T00:07:34.436Z,1.37
2018-04-04T00:10:02.087Z,1.17
2018-04-04T00:12:29.550Z,1.30
2018-04-04T00:14:57.789Z,1.00
2018-04-04T00:17:25.693Z,1.17
2018-04-04T00:19:53.232Z,1.10
2018-04-04T00:22:20.724Z,1.60
2018-04-04T00:24:49.036Z,1.30
2018-04-04T00:27:16.522Z,1.50
2018-04-04T00:29:43.991Z,1.40
2018-04-04T00:32:11.466Z,1.47
2018-04-04T00:34:39.724Z,1.77
2018-04-04T00:37:07.208Z,1.30
2018-04-04T00:39:35.450Z,1.53
2018-04-04T00:42:02.914Z,1.63
2018-04-04T00:44:31.148Z,1.50
2018-04-04T00:46:58.665Z,1.40
2018-04-04T00:49:27.456Z,1.60
2018-04-04T00:51:55.902Z,1.30
2018-04-04T00:54:23.450Z,1.37
2018-04-04T00:56:51.060Z,1.67
2018-04-04T00:59:19.303Z,1.40
2018-04-04T01:01:46.881Z,1.40
2018-04-04T01:04:14.368Z,1.63
2018-04-04T01:06:41.827Z,1.30
2018-04-04T01:09:09.302Z,1.23
2018-04-04T01:11:36.760Z,1.40
2018-04-04T01:14:04.253Z,1.40
2018-04-04T01:16:31.777Z,1.30
2018-04-04T01:18:59.249Z,1.53
2018-04-04T01:21:26.720Z,1.30
2018-04-04T01:23:54.298Z,1.80
2018-04-04T01:26:21.764Z,1.47
2018-04-04T01:28:50.018Z,1.40
2018-04-04T01:31:17.484Z,1.40
2018-04-04T01:33:44.953Z,1.23
2018-04-04T01:36:13.181Z,1.50
2018-04-04T01:38:40.655Z,1.70
2018-04-04T01:41:08.141Z,2.50
2018-04-04T01:43:36.384Z,1.50
2018-04-04T01:46:11.808Z,1.20
2018-04-04T01:48:39.272Z,1.40
2018-04-04T01:51:06.853Z,1.50
2018-04-04T01:53:35.099Z,2.00
2018-04-04T01:56:02.565Z,1.50
2018-04-04T01:58:30.132Z,1.83
2018-04-04T02:00:57.602Z,1.37
2018-04-04T02:03:25.068Z,1.20
2018-04-04T02:05:54.095Z,1.20
2018-04-04T02:08:22.321Z,1.90
2018-04-04T02:10:49.788Z,1.60
2018-04-04T02:13:17.262Z,1.60
2018-04-04T02:15:45.498Z,1.50
2018-04-04T02:18:13.003Z,1.23
2018-04-04T02:20:41.240Z,1.30
2018-04-04T02:23:08.723Z,1.60
2018-04-04T02:25:36.182Z,1.53
2018-04-04T02:28:03.650Z,2.13
2018-04-04T02:30:31.885Z,1.67
2018-04-04T02:32:59.387Z,1.70
2018-04-04T02:35:27.620Z,1.40
2018-04-04T02:37:55.100Z,2.10
2018-04-04T02:40:24.584Z,2.10
2018-04-04T02:42:52.104Z,1.83
2018-04-04T02:45:19.725Z,1.87
2018-04-04T02:47:47.985Z,1.73
2018-04-04T02:50:15.448Z,1.83
2018-04-04T02:52:42.925Z,1.63
2018-04-04T02:55:11.161Z,1.70
2018-04-04T02:57:39.100Z,1.50
2018-04-04T03:00:06.571Z,1.40
2018-04-04T03:02:34.050Z,1.50
2018-04-04T03:05:01.533Z,1.20
2018-04-04T03:07:29.761Z,3.00
2018-04-04T03:09:57.318Z,1.63
2018-04-04T03:12:24.777Z,1.40
2018-04-04T03:14:52.265Z,1.30
2018-04-04T03:17:19.729Z,1.43
2018-04-04T03:19:47.215Z,1.50
2018-04-04T03:22:14.755Z,1.30
2018-04-04T03:24:43.141Z,1.23
2018-04-04T03:27:11.373Z,1.40
2018-04-04T03:29:38.841Z,1.53
2018-04-04T03:32:06.311Z,1.80
2018-04-04T03:34:33.781Z,1.17
2018-04-04T03:37:02.018Z,1.37
2018-04-04T03:39:29.706Z,1.33
2018-04-04T03:41:57.947Z,1.07
2018-04-04T03:44:26.125Z,1.53
2018-04-04T03:46:53.644Z,1.30
2018-04-04T03:49:21.105Z,1.23
2018-04-04T03:51:48.573Z,1.40
2018-04-04T03:54:16.090Z,1.47
2018-04-04T03:56:43.833Z,1.60
2018-04-04T03:59:11.365Z,1.70
2018-04-04T04:01:39.585Z,1.60
2018-04-04T04:04:07.816Z,1.90
2018-04-04T04:06:35.288Z,1.93
2018-04-04T04:09:02.753Z,1.83
2018-04-04T04:11:30.334Z,1.97
2018-04-04T04:13:57.813Z,2.00
2018-04-04T04:16:26.062Z,1.80
2018-04-04T04:18:53.621Z,2.20
2018-04-04T04:21:21.136Z,1.90
2018-04-04T04:23:48.586Z,2.00
2018-04-04T04:26:16.061Z,2.70
2018-04-04T04:28:43.517Z,1.70
2018-04-04T04:31:10.985Z,2.40
2018-04-04T04:33:38.441Z,2.00
2018-04-04T04:36:05.928Z,2.10
2018-04-04T04:38:34.885Z,2.20
2018-04-04T04:41:02.352Z,2.13
2018-04-04T04:43:29.891Z,2.00
2018-04-04T04:45:57.383Z,2.10
2018-04-04T04:48:24.861Z,1.90
2018-04-04T04:50:53.080Z,2.90
2018-04-04T04:53:20.572Z,2.80
2018-04-04T04:55:48.028Z,3.20
2018-04-04T04:58:15.496Z,2.30
2018-04-04T05:00:43.004Z,2.53
2018-04-04T05:03:10.481Z,2.83
2018-04-04T05:05:37.933Z,2.73
2018-04-04T05:08:05.408Z,3.43
2018-04-04T05:10:32.874Z,3.30
2018-04-04T05:13:00.342Z,3.07
2018-04-04T05:15:28.563Z,3.37
2018-04-04T05:17:56.172Z,3.50
2018-04-04T05:20:25.163Z,3.40
2018-04-04T05:22:52.629Z,2.90
2018-04-04T05:25:20.878Z,3.00
2018-04-04T05:27:48.548Z,3.10
2018-04-04T05:30:16.751Z,2.80
2018-04-04T05:32:44.972Z,3.07
2018-04-04T05:35:12.445Z,2.87
2018-04-04T05:37:39.917Z,3.50
2018-04-04T05:40:08.141Z,3.33
2018-04-04T05:42:35.642Z,2.77
2018-04-04T05:45:03.103Z,2.50
2018-04-04T05:47:30.577Z,2.67
2018-04-04T05:49:58.807Z,2.70
2018-04-04T05:52:26.494Z,3.03
2018-04-04T05:54:53.973Z,3.10
2018-04-04T05:57:22.241Z,3.30
2018-04-04T05:59:49.775Z,2.80
2018-04-04T06:02:17.392Z,2.90
2018-04-04T06:04:44.869Z,3.53
2018-04-04T06:07:12.333Z,3.37
2018-04-04T06:09:39.798Z,2.80
2018-04-04T06:12:07.261Z,2.87
2018-04-04T06:14:34.754Z,3.30
2018-04-04T06:17:02.981Z,2.97
2018-04-04T06:19:30.456Z,3.57
2018-04-04T06:21:57.916Z,3.23
2018-04-04T06:24:25.401Z,3.57
2018-04-04T06:26:53.676Z,3.20
2018-04-04T06:29:22.115Z,3.53
2018-04-04T06:31:49.692Z,3.50
2018-04-04T06:34:17.936Z,3.40
2018-04-04T06:36:45.421Z,3.43
2018-04-04T06:39:12.885Z,3.60
2018-04-04T06:41:40.370Z,3.43
2018-04-04T06:44:08.618Z,4.20
2018-04-04T06:46:36.106Z,3.70
2018-04-04T06:49:03.846Z,4.50
2018-04-04T06:51:32.078Z,3.93
2018-04-04T06:53:59.554Z,4.53
2018-04-04T06:56:27.028Z,4.57
2018-04-04T06:58:54.510Z,4.60
2018-04-04T07:01:23.517Z,5.03
2018-04-04T07:03:50.997Z,4.83
2018-04-04T07:06:19.129Z,5.37
2018-04-04T07:08:47.362Z,4.87
2018-04-04T07:11:14.852Z,5.40
2018-04-04T07:13:43.300Z,5.10
2018-04-04T07:16:10.891Z,5.67
2018-04-04T07:18:39.190Z,5.47
2018-04-04T07:21:06.669Z,6.47
2018-04-04T07:23:34.149Z,7.00
2018-04-04T07:26:01.796Z,7.13
2018-04-04T07:28:29.309Z,6.87
2018-04-04T07:30:57.548Z,6.97
2018-04-04T07:33:25.089Z,7.00
2018-04-04T07:35:54.257Z,7.10
2018-04-04T07:38:22.108Z,6.77
2018-04-04T07:40:50.361Z,7.57
2018-04-04T07:43:18.025Z,6.50
2018-04-04T07:45:45.859Z,6.80
2018-04-04T07:48:13.369Z,6.53
2018-04-04T07:50:41.480Z,5.60
2018-04-04T07:53:09.160Z,5.60
2018-04-04T07:55:36.761Z,4.77
2018-04-04T07:58:04.389Z,5.23
2018-04-04T08:00:31.877Z,4.10
2018-04-04T08:03:00.149Z,4.67
2018-04-04T08:05:28.488Z,4.40
2018-04-04T08:07:55.986Z,4.90
2018-04-04T08:10:24.260Z,4.73
2018-04-04T08:12:51.825Z,5.43
2018-04-04T08:15:19.543Z,4.70
2018-04-04T08:17:47.193Z,4.70
2018-04-04T08:20:14.748Z,4.17
2018-04-04T08:22:42.300Z,4.40
2018-04-04T08:25:09.828Z,4.40
2018-04-04T08:27:37.347Z,4.30
2018-04-04T08:30:04.895Z,4.40
2018-04-04T08:32:32.471Z,4.63
2018-04-04T08:34:59.972Z,4.63
2018-04-04T08:37:27.466Z,4.33
2018-04-04T08:39:54.985Z,4.50
2018-04-04T08:42:23.477Z,4.20
2018-04-04T08:44:51.098Z,5.00
2018-04-04T08:47:19.356Z,4.77
2018-04-04T08:49:46.865Z,4.50
2018-04-04T08:52:14.357Z,5.23
2018-04-04T08:54:41.855Z,4.50
2018-04-04T08:57:10.121Z,5.30
2018-04-04T08:59:37.588Z,4.53
2018-04-04T09:02:05.861Z,5.47
2018-04-04T09:04:34.115Z,4.33
2018-04-04T09:07:01.779Z,4.50
2018-04-04T09:09:29.722Z,5.10
2018-04-04T09:12:01.466Z,5.20
2018-04-04T09:14:29.101Z,4.90
2018-04-04T09:16:56.829Z,4.60
2018-04-04T09:19:24.373Z,4.50
2018-04-04T09:21:51.850Z,4.67
2018-04-04T09:24:19.524Z,4.30
2018-04-04T09:26:47.920Z,4.83
2018-04-04T09:29:16.152Z,4.87
2018-04-04T09:31:44.410Z,4.23
2018-04-04T09:34:11.900Z,4.67
2018-04-04T09:36:40.902Z,4.40
2018-04-04T09:39:09.286Z,5.20
2018-04-04T09:41:37.538Z,4.20
2018-04-04T09:44:05.013Z,3.67
2018-04-04T09:46:33.274Z,3.60
2018-04-04T09:49:00.830Z,3.70
2018-04-04T09:51:28.301Z,4.23
2018-04-04T09:53:56.704Z,3.83
2018-04-04T09:56:24.934Z,3.90
2018-04-04T09:58:52.462Z,3.73
2018-04-04T10:01:34.873Z,3.50
2018-04-04T10:04:02.494Z,4.07
2018-04-04T10:06:30.734Z,3.60
2018-04-04T10:08:58.416Z,3.27
2018-04-04T10:11:25.949Z,3.30
2018-04-04T10:13:53.437Z,3.30
2018-04-04T10:16:21.812Z,3.33
2018-04-04T10:18:50.082Z,3.07
2018-04-04T10:21:17.589Z,3.57
2018-04-04T10:23:45.822Z,3.00
2018-04-04T10:26:13.329Z,3.40
2018-04-04T10:28:40.787Z,3.30
2018-04-04T10:31:08.316Z,4.20
2018-04-04T10:33:37.388Z,3.90
2018-04-04T10:36:05.630Z,3.33
2018-04-04T10:38:33.140Z,3.77
2018-04-04T10:41:01.411Z,3.47
2018-04-04T10:43:28.952Z,3.33
2018-04-04T10:45:57.729Z,3.00
2018-04-04T10:48:25.289Z,3.10
2018-04-04T10:50:52.798Z,3.13
2018-04-04T10:53:20.266Z,3.30
2018-04-04T10:55:47.773Z,3.50
2018-04-04T10:58:16.029Z,3.90
2018-04-04T11:00:43.613Z,3.00
2018-04-04T11:03:11.157Z,3.00
2018-04-04T11:05:38.641Z,3.30
2018-04-04T11:08:06.877Z,3.10
2018-04-04T11:10:34.361Z,3.30
2018-04-04T11:13:03.344Z,3.67
2018-04-04T11:15:31.582Z,3.07
2018-04-04T11:17:59.177Z,3.20
2018-04-04T11:20:26.751Z,3.10
2018-04-04T11:22:55.001Z,13.20
2018-04-04T11:25:22.550Z,3.67
2018-04-04T11:27:50.032Z,3.40
2018-04-04T11:30:18.268Z,3.27
2018-04-04T11:32:45.816Z,2.93
2018-04-04T11:35:13.290Z,3.30
2018-04-04T11:37:40.761Z,3.47
2018-04-04T11:40:08.293Z,2.70
2018-04-04T11:42:35.782Z,2.70
2018-04-04T11:45:03.258Z,2.80
2018-04-04T11:47:30.917Z,2.37
2018-04-04T11:49:58.542Z,1.93
2018-04-04T11:52:26.050Z,1.83
2018-04-04T11:54:54.319Z,1.77
2018-04-04T11:57:22.761Z,1.87
2018-04-04T11:59:50.317Z,1.83
2018-04-04T12:02:17.880Z,1.60
2018-04-04T12:04:45.487Z,1.60
2018-04-04T12:07:13.774Z,1.60
2018-04-04T12:09:41.291Z,2.13
2018-04-04T12:12:08.776Z,1.80
2018-04-04T12:14:37.066Z,1.80
2018-04-04T12:17:04.585Z,1.70
2018-04-04T12:19:33.597Z,1.67
2018-04-04T12:22:01.924Z,1.70
2018-04-04T12:24:29.660Z,1.60
2018-04-04T12:26:57.156Z,1.93
2018-04-04T12:29:24.650Z,1.90
2018-04-04T12:31:52.108Z,1.90
2018-04-04T12:34:20.373Z,1.90
2018-04-04T12:36:49.373Z,1.80
2018-04-04T12:39:17.623Z,1.90
2018-04-04T12:41:45.090Z,1.73
2018-04-04T12:44:12.578Z,2.10
2018-04-04T12:46:40.829Z,1.70
2018-04-04T12:49:09.073Z,2.20
2018-04-04T12:51:36.566Z,1.50
2018-04-04T12:54:04.196Z,1.87
2018-04-04T12:56:31.701Z,1.90
2018-04-04T12:58:59.954Z,1.80
2018-04-04T13:01:27.440Z,1.97
2018-04-04T13:03:55.687Z,2.40
2018-04-04T13:06:23.164Z,1.90
2018-04-04T13:08:51.398Z,2.00
2018-04-04T13:11:18.874Z,1.93
2018-04-04T13:13:46.345Z,1.80
2018-04-04T13:16:26.304Z,1.90
2018-04-04T13:18:54.557Z,2.27
2018-04-04T13:21:22.048Z,2.40
2018-04-04T13:23:50.284Z,1.97
2018-04-04T13:26:17.786Z,2.33
2018-04-04T13:28:46.078Z,2.37
2018-04-04T13:31:13.694Z,2.03
2018-04-04T13:33:41.165Z,1.70
2018-04-04T13:36:09.428Z,2.07
2018-04-04T13:38:37.697Z,1.40
2018-04-04T13:41:05.176Z,1.70
2018-04-04T13:43:33.412Z,1.70
2018-04-04T13:46:00.877Z,1.70
2018-04-04T13:48:29.061Z,1.47
2018-04-04T13:50:57.383Z,1.50
2018-04-04T13:53:25.627Z,1.57
2018-04-04T13:55:53.980Z,1.77
2018-04-04T13:58:21.469Z,1.90
2018-04-04T14:00:49.075Z,1.60
2018-04-04T14:03:16.570Z,1.60
2018-04-04T14:05:45.645Z,2.10
2018-04-04T14:08:13.147Z,2.00
2018-04-04T14:10:41.386Z,1.50
2018-04-04T14:13:08.868Z,1.70
2018-04-04T14:15:37.205Z,2.13
2018-04-04T14:18:04.690Z,2.10
2018-04-04T14:20:33.678Z,1.53
2018-04-04T14:23:01.178Z,1.63
2018-04-04T14:25:28.654Z,1.70
2018-04-04T14:27:56.136Z,1.77
2018-04-04T14:30:23.729Z,1.73
2018-04-04T14:32:52.158Z,1.70
2018-04-04T14:35:19.646Z,1.43
2018-04-04T14:37:48.648Z,2.03
2018-04-04T14:40:16.164Z,1.70
2018-04-04T14:42:43.633Z,1.67
2018-04-04T14:45:11.122Z,1.80
2018-04-04T14:47:38.688Z,1.80
2018-04-04T14:50:06.958Z,1.40
2018-04-04T14:52:34.421Z,1.50
2018-04-04T14:55:02.678Z,1.63
2018-04-04T14:57:30.149Z,1.80
2018-04-04T14:59:58.430Z,1.67
2018-04-04T15:02:26.702Z,2.10
2018-04-04T15:04:54.946Z,1.40
2018-04-04T15:07:22.424Z,1.60
2018-04-04T15:09:50.678Z,1.50
2018-04-04T15:12:18.165Z,1.30
2018-04-04T15:14:46.452Z,1.60
2018-04-04T15:17:14.842Z,1.37
2018-04-04T15:19:42.335Z,1.90
2018-04-04T15:22:09.949Z,2.20
2018-04-04T15:24:38.390Z,1.53
2018-04-04T15:27:05.925Z,1.93
2018-04-04T15:29:33.405Z,1.20
2018-04-04T15:32:00.938Z,1.37
2018-04-04T15:34:28.410Z,1.87
2018-04-04T15:36:55.897Z,1.70
2018-04-04T15:39:24.892Z,1.67
2018-04-04T15:41:53.946Z,1.70
2018-04-04T15:44:21.409Z,1.67
2018-04-04T15:46:48.898Z,1.77
2018-04-04T15:49:16.367Z,1.80
2018-04-04T15:51:45.758Z,1.60
2018-04-04T15:54:14.943Z,1.60
2018-04-04T15:56:42.414Z,1.20
2018-04-04T15:59:10.673Z,1.40
2018-04-04T16:01:38.279Z,1.20
2018-04-04T16:04:05.756Z,1.20
2018-04-04T16:06:33.305Z,1.37
2018-04-04T16:09:00.935Z,1.50
2018-04-04T16:11:28.602Z,1.33
2018-04-04T16:13:56.841Z,1.53
2018-04-04T16:16:24.309Z,1.40
2018-04-04T16:18:51.786Z,0.90
2018-04-04T16:21:20.039Z,1.50
2018-04-04T16:23:47.538Z,1.20
2018-04-04T16:26:15.756Z,1.33
2018-04-04T16:28:43.369Z,1.57
2018-04-04T16:31:11.774Z,1.30
2018-04-04T16:33:39.263Z,1.40
2018-04-04T16:36:07.475Z,1.70
2018-04-04T16:38:35.833Z,1.67
2018-04-04T16:41:03.466Z,1.40
2018-04-04T16:43:31.018Z,1.30
2018-04-04T16:45:58.692Z,1.50
2018-04-04T16:48:26.392Z,1.00
2018-04-04T16:50:54.772Z,1.50
2018-04-04T16:53:23.140Z,1.70
2018-04-04T16:55:50.767Z,1.17
2018-04-04T16:58:18.561Z,1.33
2018-04-04T17:00:46.205Z,1.60
2018-04-04T17:03:13.765Z,1.40
2018-04-04T17:05:41.267Z,1.80
2018-04-04T17:08:08.756Z,1.20
2018-04-04T17:10:36.317Z,1.40
2018-04-04T17:13:04.077Z,1.40
2018-04-04T17:15:31.705Z,1.87
2018-04-04T17:18:00.168Z,1.57
2018-04-04T17:20:28.415Z,1.47
2018-04-04T17:22:55.951Z,1.70
2018-04-04T17:25:23.444Z,1.43
2018-04-04T17:27:51.140Z,1.30
2018-04-04T17:30:18.648Z,1.60
2018-04-04T17:32:46.154Z,1.47
2018-04-04T17:35:13.769Z,1.50
2018-04-04T17:37:41.260Z,2.40
2018-04-04T17:40:09.630Z,1.37
2018-04-04T17:42:38.612Z,1.50
2018-04-04T17:45:06.168Z,1.63
2018-04-04T17:47:33.671Z,1.33
2018-04-04T17:50:02.044Z,1.80
2018-04-04T17:52:30.329Z,1.60
2018-04-04T17:54:57.820Z,1.30
2018-04-04T17:57:25.517Z,1.40
2018-04-04T17:59:53.789Z,1.40
2018-04-04T18:02:22.179Z,1.50
2018-04-04T18:04:50.580Z,1.40
2018-04-04T18:07:20.055Z,1.73
2018-04-04T18:09:51.184Z,1.80
2018-04-04T18:12:22.297Z,2.53
2018-04-04T18:14:50.707Z,3.37
2018-04-04T18:17:18.483Z,3.20
2018-04-04T18:19:48.566Z,2.33
2018-04-04T18:22:19.157Z,1.83
2018-04-04T18:24:46.795Z,1.80
2018-04-04T18:27:14.918Z,2.10
2018-04-04T18:29:42.390Z,2.13
2018-04-04T18:32:10.278Z,1.63
2018-04-04T18:34:38.405Z,1.93
2018-04-04T18:37:07.146Z,1.90
2018-04-04T18:39:34.706Z,2.23
2018-04-04T18:42:03.130Z,1.70
2018-04-04T18:44:31.073Z,2.20
2018-04-04T18:46:59.228Z,1.93
2018-04-04T18:49:27.419Z,2.03
2018-04-04T18:51:59.962Z,2.03
2018-04-04T18:54:29.249Z,1.87
2018-04-04T18:56:57.766Z,2.13
2018-04-04T18:59:25.510Z,1.80
2018-04-04T19:01:53.925Z,1.90
2018-04-04T19:04:22.275Z,2.30
2018-04-04T19:06:50.718Z,2.20
2018-04-04T19:09:18.379Z,1.70
2018-04-04T19:11:46.069Z,1.57
2018-04-04T19:14:13.952Z,2.00
2018-04-04T19:16:41.454Z,1.63
2018-04-04T19:19:09.066Z,2.30
2018-04-04T19:21:36.534Z,1.90
2018-04-04T19:24:04.974Z,1.90
2018-04-04T19:26:32.448Z,1.70
2018-04-04T19:28:59.966Z,1.63
2018-04-04T19:31:27.598Z,2.03
2018-04-04T19:33:55.114Z,1.93
2018-04-04T19:36:23.641Z,1.90
2018-04-04T19:38:51.256Z,1.73
2018-04-04T19:41:18.912Z,1.63
2018-04-04T19:43:46.450Z,1.93
2018-04-04T19:46:13.984Z,2.50
2018-04-04T19:48:41.523Z,2.23
2018-04-04T19:51:10.170Z,2.10
2018-04-04T19:53:38.449Z,2.57
2018-04-04T19:56:07.513Z,2.03
2018-04-04T19:58:35.022Z,1.93
2018-04-04T20:01:02.542Z,2.20
2018-04-04T20:03:30.132Z,2.13
2018-04-04T20:05:57.772Z,2.50
2018-04-04T20:08:25.329Z,2.60
2018-04-04T20:10:53.265Z,2.87
2018-04-04T20:13:20.700Z,2.83
2018-04-04T20:15:48.963Z,2.63
2018-04-04T20:18:17.215Z,2.70
2018-04-04T20:20:44.698Z,3.07
2018-04-04T20:23:12.961Z,3.37
2018-04-04T20:25:41.519Z,3.03
2018-04-04T20:28:09.072Z,2.90
2018-04-04T20:30:36.772Z,2.80
2018-04-04T20:33:04.299Z,2.13
2018-04-04T20:35:31.806Z,2.40
2018-04-04T20:38:00.107Z,2.10
2018-04-04T20:40:27.831Z,2.00
2018-04-04T20:42:56.155Z,2.43
2018-04-04T20:45:23.687Z,2.03
2018-04-04T20:47:51.347Z,2.47
2018-04-04T20:50:19.600Z,2.00
2018-04-04T20:52:47.875Z,2.10
2018-04-04T20:55:15.775Z,2.50
2018-04-04T20:57:43.449Z,2.13
2018-04-04T21:00:10.949Z,2.37
2018-04-04T21:02:39.257Z,2.10
2018-04-04T21:05:06.713Z,2.20
2018-04-04T21:07:34.235Z,2.00
2018-04-04T21:10:01.851Z,1.93
2018-04-04T21:12:29.455Z,1.83
2018-04-04T21:14:57.171Z,2.20
2018-04-04T21:17:25.680Z,1.90
2018-04-04T21:19:55.087Z,2.07
2018-04-04T21:22:22.916Z,2.50
2018-04-04T21:24:50.413Z,1.60
2018-04-04T21:27:18.037Z,2.33
2018-04-04T21:29:45.546Z,1.70
2018-04-04T21:32:13.451Z,1.70
2018-04-04T21:34:41.701Z,1.30
2018-04-04T21:37:09.184Z,1.40
2018-04-04T21:39:37.447Z,1.23
2018-04-04T21:42:05.718Z,1.30
2018-04-04T21:44:34.594Z,1.30
2018-04-04T21:47:02.974Z,1.07
2018-04-04T21:49:30.440Z,0.90
2018-04-04T21:51:58.753Z,0.90
2018-04-04T21:54:26.265Z,0.83
2018-04-04T21:56:53.784Z,1.00
2018-04-04T21:59:21.282Z,1.10
2018-04-04T22:01:48.773Z,0.90
2018-04-04T22:04:17.257Z,0.97
2018-04-04T22:06:44.745Z,1.10
2018-04-04T22:09:12.230Z,1.03
2018-04-04T22:11:39.707Z,1.13
2018-04-04T22:14:08.121Z,0.80
2018-04-04T22:16:35.652Z,1.10
2018-04-04T22:19:03.922Z,0.80
2018-04-04T22:21:32.257Z,1.30
2018-04-04T22:23:59.798Z,0.90
2018-04-04T22:26:27.357Z,0.80
2018-04-04T22:28:54.848Z,0.90
2018-04-04T22:31:22.311Z,0.83
2018-04-04T22:33:49.777Z,0.80
2018-04-04T22:36:17.291Z,1.00
2018-04-04T22:38:44.821Z,1.00
2018-04-04T22:41:13.049Z,1.00
2018-04-04T22:43:40.533Z,0.80
2018-04-04T22:46:08.782Z,1.00
2018-04-04T22:48:36.266Z,0.93
2018-04-04T22:51:05.225Z,0.90
2018-04-04T22:53:32.686Z,0.80
2018-04-04T22:56:00.168Z,0.80
2018-04-04T22:58:27.643Z,1.00
2018-04-04T23:00:55.884Z,0.80
2018-04-04T23:03:23.378Z,1.00
2018-04-04T23:05:50.833Z,1.30
2018-04-04T23:08:18.298Z,1.00
2018-04-04T23:10:45.781Z,0.90
2018-04-04T23:13:13.278Z,1.20
2018-04-04T23:15:40.806Z,1.10
2018-04-04T23:18:09.140Z,0.90
2018-04-04T23:20:37.380Z,1.10
2018-04-04T23:23:04.855Z,1.10
2018-04-04T23:25:33.848Z,1.20
2018-04-04T23:28:01.353Z,0.90
2018-04-04T23:30:28.809Z,1.03
2018-04-04T23:32:56.283Z,1.30
2018-04-04T23:35:23.748Z,1.30
2018-04-04T23:37:51.224Z,1.43
2018-04-04T23:40:19.465Z,1.23
2018-04-04T23:42:46.941Z,1.10
2018-04-04T23:45:14.415Z,1.10
2018-04-04T23:47:42.695Z,1.10
2018-04-04T23:50:11.441Z,1.10
2018-04-04T23:52:39.042Z,1.30
2018-04-04T23:55:06.521Z,1.37
2018-04-04T23:57:34.755Z,1.07
